sensor_id;sensor_type;location;lat;lon;timestamp;P1;durP1;ratioP1;P2;durP2;ratioP2
75854;SDS011;64502;59.976;30.316;2022-12-31T00:02:01;21.60;;;8.48;;
75854;SDS011;64502;59.976;30.316;2022-12-31T00:04:26;19.00;;;7.20;;
75854;SDS011;64502;59.976;30.316;2022-12-31T00:06:52;14.07;;;6.45;;
75854;SDS011;64502;59.976;30.316;2022-12-31T00:09:17;13.10;;;4.68;;
75854;SDS011;64502;59.976;30.316;2022-12-31T00:11:43;16.63;;;6.70;;
75854;SDS011;64502;59.976;30.316;2022-12-31T00:14:08;14.02;;;4.93;;
75854;SDS011;64502;59.976;30.316;2022-12-31T00:16:35;12.80;;;4.80;;
75854;SDS011;64502;59.976;30.316;2022-12-31T00:19:02;10.00;;;3.67;;
75854;SDS011;64502;59.976;30.316;2022-12-31T00:21:30;13.80;;;4.63;;
75854;SDS011;64502;59.976;30.316;2022-12-31T00:23:57;12.60;;;4.00;;
75854;SDS011;64502;59.976;30.316;2022-12-31T00:26:24;11.05;;;4.10;;
75854;SDS011;64502;59.976;30.316;2022-12-31T00:28:51;10.10;;;3.63;;
75854;SDS011;64502;59.976;30.316;2022-12-31T00:31:19;11.10;;;4.93;;
75854;SDS011;64502;59.976;30.316;2022-12-31T00:33:49;13.32;;;4.07;;
75854;SDS011;64502;59.976;30.316;2022-12-31T00:36:16;11.45;;;4.32;;
75854;SDS011;64502;59.976;30.316;2022-12-31T00:38:44;11.32;;;4.00;;
75854;SDS011;64502;59.976;30.316;2022-12-31T00:41:12;9.55;;;3.45;;
75854;SDS011;64502;59.976;30.316;2022-12-31T00:43:39;13.55;;;4.43;;
75854;SDS011;64502;59.976;30.316;2022-12-31T00:46:05;11.07;;;3.92;;
75854;SDS011;64502;59.976;30.316;2022-12-31T00:48:32;11.65;;;4.47;;
75854;SDS011;64502;59.976;30.316;2022-12-31T00:50:58;9.75;;;4.03;;
75854;SDS011;64502;59.976;30.316;2022-12-31T00:53:25;10.60;;;3.53;;
75854;SDS011;64502;59.976;30.316;2022-12-31T00:55:51;9.30;;;3.17;;
75854;SDS011;64502;59.976;30.316;2022-12-31T00:58:17;10.82;;;3.53;;
75854;SDS011;64502;59.976;30.316;2022-12-31T01:00:42;10.23;;;3.67;;
75854;SDS011;64502;59.976;30.316;2022-12-31T01:03:08;11.43;;;3.92;;
75854;SDS011;64502;59.976;30.316;2022-12-31T01:05:34;12.07;;;4.82;;
75854;SDS011;64502;59.976;30.316;2022-12-31T01:08:00;9.65;;;4.07;;
75854;SDS011;64502;59.976;30.316;2022-12-31T01:10:26;9.88;;;3.97;;
75854;SDS011;64502;59.976;30.316;2022-12-31T01:13:10;12.70;;;3.97;;
75854;SDS011;64502;59.976;30.316;2022-12-31T01:15:36;11.80;;;4.85;;
75854;SDS011;64502;59.976;30.316;2022-12-31T01:18:03;14.50;;;4.78;;
75854;SDS011;64502;59.976;30.316;2022-12-31T01:20:30;10.68;;;3.88;;
75854;SDS011;64502;59.976;30.316;2022-12-31T01:23:00;8.30;;;3.40;;
75854;SDS011;64502;59.976;30.316;2022-12-31T01:25:25;13.80;;;4.40;;
75854;SDS011;64502;59.976;30.316;2022-12-31T01:27:52;11.52;;;4.30;;
75854;SDS011;64502;59.976;30.316;2022-12-31T01:30:17;13.18;;;3.88;;
75854;SDS011;64502;59.976;30.316;2022-12-31T01:32:42;11.40;;;3.88;;
75854;SDS011;64502;59.976;30.316;2022-12-31T01:35:08;14.27;;;4.28;;
75854;SDS011;64502;59.976;30.316;2022-12-31T01:37:34;15.52;;;4.45;;
75854;SDS011;64502;59.976;30.316;2022-12-31T01:39:59;12.52;;;4.32;;
75854;SDS011;64502;59.976;30.316;2022-12-31T01:42:24;9.13;;;4.03;;
75854;SDS011;64502;59.976;30.316;2022-12-31T01:44:53;11.82;;;4.07;;
75854;SDS011;64502;59.976;30.316;2022-12-31T01:50:17;10.82;;;3.78;;
75854;SDS011;64502;59.976;30.316;2022-12-31T01:52:49;9.55;;;3.88;;
75854;SDS011;64502;59.976;30.316;2022-12-31T01:55:19;11.77;;;4.53;;
75854;SDS011;64502;59.976;30.316;2022-12-31T01:57:49;10.43;;;3.58;;
75854;SDS011;64502;59.976;30.316;2022-12-31T02:00:17;10.85;;;3.90;;
75854;SDS011;64502;59.976;30.316;2022-12-31T02:02:43;10.55;;;4.40;;
75854;SDS011;64502;59.976;30.316;2022-12-31T02:05:11;11.25;;;4.13;;
75854;SDS011;64502;59.976;30.316;2022-12-31T02:07:43;11.32;;;4.10;;
75854;SDS011;64502;59.976;30.316;2022-12-31T02:10:09;12.85;;;3.95;;
75854;SDS011;64502;59.976;30.316;2022-12-31T02:12:35;7.03;;;2.72;;
75854;SDS011;64502;59.976;30.316;2022-12-31T02:15:00;8.45;;;3.40;;
75854;SDS011;64502;59.976;30.316;2022-12-31T02:31:25;7.15;;;2.70;;
75854;SDS011;64502;59.976;30.316;2022-12-31T02:33:57;8.63;;;2.92;;
75854;SDS011;64502;59.976;30.316;2022-12-31T02:36:35;6.50;;;2.25;;
75854;SDS011;64502;59.976;30.316;2022-12-31T02:39:04;6.20;;;2.33;;
75854;SDS011;64502;59.976;30.316;2022-12-31T02:41:32;8.73;;;2.92;;
75854;SDS011;64502;59.976;30.316;2022-12-31T02:44:37;7.28;;;2.65;;
75854;SDS011;64502;59.976;30.316;2022-12-31T02:47:16;6.15;;;2.50;;
75854;SDS011;64502;59.976;30.316;2022-12-31T02:49:47;7.18;;;2.35;;
75854;SDS011;64502;59.976;30.316;2022-12-31T03:04:03;9.10;;;2.42;;
75854;SDS011;64502;59.976;30.316;2022-12-31T03:06:49;8.88;;;2.72;;
75854;SDS011;64502;59.976;30.316;2022-12-31T03:09:16;7.97;;;2.55;;
75854;SDS011;64502;59.976;30.316;2022-12-31T03:11:41;8.57;;;2.55;;
75854;SDS011;64502;59.976;30.316;2022-12-31T03:14:26;10.40;;;2.67;;
75854;SDS011;64502;59.976;30.316;2022-12-31T03:16:51;7.53;;;2.78;;
75854;SDS011;64502;59.976;30.316;2022-12-31T03:19:16;6.70;;;2.50;;
75854;SDS011;64502;59.976;30.316;2022-12-31T03:22:00;8.50;;;2.83;;
75854;SDS011;64502;59.976;30.316;2022-12-31T03:24:44;7.15;;;2.95;;
75854;SDS011;64502;59.976;30.316;2022-12-31T03:27:28;8.05;;;2.72;;
75854;SDS011;64502;59.976;30.316;2022-12-31T03:29:54;6.95;;;3.13;;
75854;SDS011;64502;59.976;30.316;2022-12-31T03:32:19;5.57;;;2.10;;
75854;SDS011;64502;59.976;30.316;2022-12-31T03:34:45;6.68;;;1.80;;
75854;SDS011;64502;59.976;30.316;2022-12-31T03:37:10;6.40;;;2.03;;
75854;SDS011;64502;59.976;30.316;2022-12-31T03:39:36;8.43;;;2.40;;
75854;SDS011;64502;59.976;30.316;2022-12-31T03:42:01;6.03;;;2.45;;
75854;SDS011;64502;59.976;30.316;2022-12-31T03:44:26;6.20;;;2.05;;
75854;SDS011;64502;59.976;30.316;2022-12-31T03:46:52;8.82;;;2.42;;
75854;SDS011;64502;59.976;30.316;2022-12-31T03:49:17;4.82;;;1.67;;
75854;SDS011;64502;59.976;30.316;2022-12-31T03:51:43;3.55;;;1.33;;
75854;SDS011;64502;59.976;30.316;2022-12-31T03:54:08;5.18;;;1.92;;
75854;SDS011;64502;59.976;30.316;2022-12-31T03:56:33;4.18;;;1.90;;
75854;SDS011;64502;59.976;30.316;2022-12-31T03:58:59;6.85;;;1.75;;
75854;SDS011;64502;59.976;30.316;2022-12-31T04:01:24;4.60;;;1.77;;
75854;SDS011;64502;59.976;30.316;2022-12-31T04:03:50;8.95;;;2.53;;
75854;SDS011;64502;59.976;30.316;2022-12-31T04:06:15;4.53;;;1.90;;
75854;SDS011;64502;59.976;30.316;2022-12-31T04:08:41;5.45;;;2.38;;
75854;SDS011;64502;59.976;30.316;2022-12-31T04:11:06;5.05;;;1.90;;
75854;SDS011;64502;59.976;30.316;2022-12-31T04:13:32;6.82;;;2.30;;
75854;SDS011;64502;59.976;30.316;2022-12-31T04:15:57;7.53;;;2.28;;
75854;SDS011;64502;59.976;30.316;2022-12-31T04:18:22;4.90;;;1.80;;
75854;SDS011;64502;59.976;30.316;2022-12-31T04:20:48;6.15;;;1.85;;
75854;SDS011;64502;59.976;30.316;2022-12-31T04:23:13;4.05;;;1.55;;
75854;SDS011;64502;59.976;30.316;2022-12-31T04:25:39;3.35;;;1.40;;
75854;SDS011;64502;59.976;30.316;2022-12-31T04:28:04;3.38;;;1.27;;
75854;SDS011;64502;59.976;30.316;2022-12-31T04:30:30;3.15;;;1.00;;
75854;SDS011;64502;59.976;30.316;2022-12-31T04:32:55;4.88;;;1.10;;
75854;SDS011;64502;59.976;30.316;2022-12-31T04:35:21;4.43;;;1.88;;
75854;SDS011;64502;59.976;30.316;2022-12-31T04:37:46;3.80;;;0.90;;
75854;SDS011;64502;59.976;30.316;2022-12-31T04:40:11;3.38;;;0.85;;
75854;SDS011;64502;59.976;30.316;2022-12-31T04:42:37;1.25;;;0.52;;
75854;SDS011;64502;59.976;30.316;2022-12-31T04:45:03;3.10;;;0.85;;
75854;SDS011;64502;59.976;30.316;2022-12-31T04:47:28;2.55;;;0.63;;
75854;SDS011;64502;59.976;30.316;2022-12-31T04:49:54;4.50;;;0.63;;
75854;SDS011;64502;59.976;30.316;2022-12-31T04:52:19;2.83;;;0.60;;
75854;SDS011;64502;59.976;30.316;2022-12-31T04:54:45;3.45;;;1.00;;
75854;SDS011;64502;59.976;30.316;2022-12-31T04:57:11;3.30;;;0.73;;
75854;SDS011;64502;59.976;30.316;2022-12-31T04:59:36;3.13;;;0.82;;
75854;SDS011;64502;59.976;30.316;2022-12-31T05:02:02;3.92;;;0.80;;
75854;SDS011;64502;59.976;30.316;2022-12-31T05:04:27;2.25;;;0.90;;
75854;SDS011;64502;59.976;30.316;2022-12-31T05:06:53;3.15;;;1.02;;
75854;SDS011;64502;59.976;30.316;2022-12-31T05:09:18;3.45;;;0.93;;
75854;SDS011;64502;59.976;30.316;2022-12-31T05:11:44;3.45;;;1.52;;
75854;SDS011;64502;59.976;30.316;2022-12-31T05:14:10;2.92;;;0.90;;
75854;SDS011;64502;59.976;30.316;2022-12-31T05:16:35;2.58;;;0.90;;
75854;SDS011;64502;59.976;30.316;2022-12-31T05:19:00;2.45;;;0.80;;
75854;SDS011;64502;59.976;30.316;2022-12-31T05:21:26;3.15;;;0.85;;
75854;SDS011;64502;59.976;30.316;2022-12-31T05:23:51;3.70;;;0.70;;
75854;SDS011;64502;59.976;30.316;2022-12-31T05:26:17;3.22;;;0.98;;
75854;SDS011;64502;59.976;30.316;2022-12-31T05:28:43;4.72;;;1.25;;
75854;SDS011;64502;59.976;30.316;2022-12-31T05:31:08;4.50;;;1.15;;
75854;SDS011;64502;59.976;30.316;2022-12-31T05:33:34;3.15;;;0.77;;
75854;SDS011;64502;59.976;30.316;2022-12-31T05:35:59;2.72;;;0.95;;
75854;SDS011;64502;59.976;30.316;2022-12-31T05:38:25;2.80;;;0.70;;
75854;SDS011;64502;59.976;30.316;2022-12-31T05:40:57;3.67;;;1.05;;
75854;SDS011;64502;59.976;30.316;2022-12-31T05:43:23;3.22;;;0.80;;
75854;SDS011;64502;59.976;30.316;2022-12-31T05:45:49;2.70;;;1.05;;
75854;SDS011;64502;59.976;30.316;2022-12-31T05:48:14;3.60;;;0.65;;
75854;SDS011;64502;59.976;30.316;2022-12-31T05:50:40;3.20;;;1.05;;
75854;SDS011;64502;59.976;30.316;2022-12-31T05:53:05;6.05;;;0.90;;
75854;SDS011;64502;59.976;30.316;2022-12-31T05:55:31;2.00;;;0.63;;
75854;SDS011;64502;59.976;30.316;2022-12-31T05:57:56;2.97;;;0.82;;
75854;SDS011;64502;59.976;30.316;2022-12-31T06:00:22;2.80;;;0.70;;
75854;SDS011;64502;59.976;30.316;2022-12-31T06:02:47;3.00;;;0.98;;
75854;SDS011;64502;59.976;30.316;2022-12-31T06:05:13;4.20;;;0.90;;
75854;SDS011;64502;59.976;30.316;2022-12-31T06:07:38;3.88;;;0.60;;
75854;SDS011;64502;59.976;30.316;2022-12-31T06:10:04;2.58;;;0.70;;
75854;SDS011;64502;59.976;30.316;2022-12-31T06:12:30;2.05;;;1.17;;
75854;SDS011;64502;59.976;30.316;2022-12-31T06:14:56;2.70;;;0.50;;
75854;SDS011;64502;59.976;30.316;2022-12-31T06:17:21;3.47;;;0.75;;
75854;SDS011;64502;59.976;30.316;2022-12-31T06:19:47;2.95;;;0.60;;
75854;SDS011;64502;59.976;30.316;2022-12-31T06:22:13;4.55;;;1.70;;
75854;SDS011;64502;59.976;30.316;2022-12-31T06:24:38;2.30;;;0.90;;
75854;SDS011;64502;59.976;30.316;2022-12-31T06:27:04;2.70;;;0.98;;
75854;SDS011;64502;59.976;30.316;2022-12-31T06:29:29;2.65;;;1.20;;
75854;SDS011;64502;59.976;30.316;2022-12-31T06:31:55;3.03;;;0.93;;
75854;SDS011;64502;59.976;30.316;2022-12-31T06:34:20;2.58;;;1.00;;
75854;SDS011;64502;59.976;30.316;2022-12-31T06:36:46;2.50;;;0.65;;
75854;SDS011;64502;59.976;30.316;2022-12-31T06:39:11;4.45;;;1.10;;
75854;SDS011;64502;59.976;30.316;2022-12-31T06:41:37;6.93;;;1.13;;
75854;SDS011;64502;59.976;30.316;2022-12-31T06:44:02;2.00;;;0.70;;
75854;SDS011;64502;59.976;30.316;2022-12-31T06:46:28;2.30;;;0.73;;
75854;SDS011;64502;59.976;30.316;2022-12-31T06:48:53;5.72;;;1.25;;
75854;SDS011;64502;59.976;30.316;2022-12-31T06:51:19;5.38;;;0.98;;
75854;SDS011;64502;59.976;30.316;2022-12-31T06:53:46;3.08;;;1.00;;
75854;SDS011;64502;59.976;30.316;2022-12-31T06:56:14;2.97;;;1.00;;
75854;SDS011;64502;59.976;30.316;2022-12-31T06:58:46;3.60;;;1.48;;
75854;SDS011;64502;59.976;30.316;2022-12-31T07:06:32;6.65;;;1.90;;
75854;SDS011;64502;59.976;30.316;2022-12-31T07:09:05;4.00;;;1.88;;
75854;SDS011;64502;59.976;30.316;2022-12-31T07:11:40;4.50;;;1.52;;
75854;SDS011;64502;59.976;30.316;2022-12-31T07:22:31;6.15;;;1.55;;
75854;SDS011;64502;59.976;30.316;2022-12-31T07:24:57;5.03;;;1.63;;
75854;SDS011;64502;59.976;30.316;2022-12-31T07:35:20;5.20;;;2.10;;
75854;SDS011;64502;59.976;30.316;2022-12-31T07:48:22;4.25;;;1.02;;
75854;SDS011;64502;59.976;30.316;2022-12-31T07:50:51;2.65;;;1.15;;
75854;SDS011;64502;59.976;30.316;2022-12-31T07:53:18;3.53;;;1.15;;
75854;SDS011;64502;59.976;30.316;2022-12-31T07:55:44;5.68;;;1.23;;
75854;SDS011;64502;59.976;30.316;2022-12-31T07:58:41;3.65;;;1.90;;
75854;SDS011;64502;59.976;30.316;2022-12-31T08:01:10;4.28;;;1.55;;
75854;SDS011;64502;59.976;30.316;2022-12-31T08:09:34;2.80;;;1.17;;
75854;SDS011;64502;59.976;30.316;2022-12-31T08:12:10;7.82;;;1.35;;
75854;SDS011;64502;59.976;30.316;2022-12-31T08:14:45;3.03;;;1.05;;
75854;SDS011;64502;59.976;30.316;2022-12-31T08:17:12;5.45;;;1.20;;
75854;SDS011;64502;59.976;30.316;2022-12-31T08:19:39;2.72;;;0.80;;
75854;SDS011;64502;59.976;30.316;2022-12-31T08:25:12;3.13;;;1.15;;
75854;SDS011;64502;59.976;30.316;2022-12-31T08:30:38;3.50;;;1.10;;
75854;SDS011;64502;59.976;30.316;2022-12-31T08:33:25;3.17;;;1.10;;
75854;SDS011;64502;59.976;30.316;2022-12-31T08:38:31;2.47;;;0.80;;
75854;SDS011;64502;59.976;30.316;2022-12-31T08:46:45;2.95;;;1.05;;
75854;SDS011;64502;59.976;30.316;2022-12-31T08:49:28;3.30;;;1.30;;
75854;SDS011;64502;59.976;30.316;2022-12-31T08:51:57;3.05;;;1.20;;
75854;SDS011;64502;59.976;30.316;2022-12-31T08:54:24;3.50;;;1.30;;
75854;SDS011;64502;59.976;30.316;2022-12-31T08:57:02;3.10;;;1.10;;
75854;SDS011;64502;59.976;30.316;2022-12-31T08:59:51;4.45;;;1.20;;
75854;SDS011;64502;59.976;30.316;2022-12-31T09:10:45;4.93;;;1.70;;
75854;SDS011;64502;59.976;30.316;2022-12-31T09:21:26;4.47;;;0.68;;
75854;SDS011;64502;59.976;30.316;2022-12-31T09:23:52;2.67;;;0.70;;
75854;SDS011;64502;59.976;30.316;2022-12-31T09:29:18;3.63;;;0.70;;
75854;SDS011;64502;59.976;30.316;2022-12-31T09:31:48;5.00;;;0.63;;
75854;SDS011;64502;59.976;30.316;2022-12-31T09:34:33;2.13;;;0.70;;
75854;SDS011;64502;59.976;30.316;2022-12-31T09:37:09;4.53;;;0.65;;
75854;SDS011;64502;59.976;30.316;2022-12-31T09:39:45;3.53;;;1.15;;
75854;SDS011;64502;59.976;30.316;2022-12-31T09:50:11;2.85;;;1.00;;
75854;SDS011;64502;59.976;30.316;2022-12-31T09:52:46;7.10;;;1.45;;
75854;SDS011;64502;59.976;30.316;2022-12-31T09:55:25;4.97;;;1.17;;
75854;SDS011;64502;59.976;30.316;2022-12-31T10:00:56;4.18;;;1.15;;
75854;SDS011;64502;59.976;30.316;2022-12-31T10:03:39;5.57;;;1.40;;
75854;SDS011;64502;59.976;30.316;2022-12-31T10:14:41;2.80;;;0.65;;
75854;SDS011;64502;59.976;30.316;2022-12-31T10:17:29;7.30;;;0.90;;
75854;SDS011;64502;59.976;30.316;2022-12-31T10:26:10;3.75;;;0.90;;
75854;SDS011;64502;59.976;30.316;2022-12-31T10:36:50;3.22;;;1.17;;
75854;SDS011;64502;59.976;30.316;2022-12-31T10:42:23;4.72;;;1.05;;
75854;SDS011;64502;59.976;30.316;2022-12-31T10:56:36;5.40;;;1.35;;
75854;SDS011;64502;59.976;30.316;2022-12-31T11:07:51;2.60;;;0.88;;
75854;SDS011;64502;59.976;30.316;2022-12-31T11:15:53;7.13;;;1.05;;
75854;SDS011;64502;59.976;30.316;2022-12-31T11:38:29;5.57;;;1.20;;
75854;SDS011;64502;59.976;30.316;2022-12-31T11:41:18;6.45;;;2.00;;
75854;SDS011;64502;59.976;30.316;2022-12-31T11:54:41;6.43;;;1.42;;
75854;SDS011;64502;59.976;30.316;2022-12-31T11:57:31;5.13;;;1.35;;
75854;SDS011;64502;59.976;30.316;2022-12-31T12:00:19;4.00;;;0.90;;
75854;SDS011;64502;59.976;30.316;2022-12-31T12:02:54;6.53;;;1.00;;
75854;SDS011;64502;59.976;30.316;2022-12-31T12:05:23;4.60;;;1.75;;
75854;SDS011;64502;59.976;30.316;2022-12-31T12:07:51;4.43;;;0.73;;
75854;SDS011;64502;59.976;30.316;2022-12-31T12:10:25;6.72;;;1.40;;
75854;SDS011;64502;59.976;30.316;2022-12-31T12:12:52;5.43;;;0.90;;
75854;SDS011;64502;59.976;30.316;2022-12-31T12:15:20;4.82;;;0.98;;
75854;SDS011;64502;59.976;30.316;2022-12-31T12:17:58;6.72;;;1.27;;
75854;SDS011;64502;59.976;30.316;2022-12-31T12:20:31;6.22;;;1.38;;
75854;SDS011;64502;59.976;30.316;2022-12-31T12:23:00;3.22;;;0.82;;
75854;SDS011;64502;59.976;30.316;2022-12-31T12:25:37;6.18;;;1.48;;
75854;SDS011;64502;59.976;30.316;2022-12-31T12:28:40;7.53;;;1.73;;
75854;SDS011;64502;59.976;30.316;2022-12-31T12:31:06;8.65;;;1.52;;
75854;SDS011;64502;59.976;30.316;2022-12-31T12:33:41;4.38;;;0.90;;
75854;SDS011;64502;59.976;30.316;2022-12-31T12:36:09;6.75;;;1.25;;
75854;SDS011;64502;59.976;30.316;2022-12-31T12:38:37;3.92;;;0.95;;
75854;SDS011;64502;59.976;30.316;2022-12-31T12:41:04;5.30;;;1.00;;
75854;SDS011;64502;59.976;30.316;2022-12-31T12:43:32;3.75;;;1.10;;
75854;SDS011;64502;59.976;30.316;2022-12-31T12:46:02;5.47;;;0.95;;
75854;SDS011;64502;59.976;30.316;2022-12-31T12:51:00;7.63;;;1.85;;
75854;SDS011;64502;59.976;30.316;2022-12-31T13:08:07;4.90;;;1.52;;
75854;SDS011;64502;59.976;30.316;2022-12-31T13:24:28;6.78;;;2.13;;
75854;SDS011;64502;59.976;30.316;2022-12-31T13:29:31;9.63;;;1.67;;
75854;SDS011;64502;59.976;30.316;2022-12-31T13:31:59;5.95;;;2.70;;
75854;SDS011;64502;59.976;30.316;2022-12-31T13:34:32;5.53;;;1.92;;
75854;SDS011;64502;59.976;30.316;2022-12-31T13:40:45;5.32;;;2.13;;
75854;SDS011;64502;59.976;30.316;2022-12-31T13:42:47;7.30;;;2.10;;
75854;SDS011;64502;59.976;30.316;2022-12-31T13:45:21;7.45;;;2.33;;
75854;SDS011;64502;59.976;30.316;2022-12-31T13:47:51;8.95;;;2.63;;
75854;SDS011;64502;59.976;30.316;2022-12-31T13:50:28;7.43;;;2.35;;
75854;SDS011;64502;59.976;30.316;2022-12-31T13:53:13;4.28;;;2.35;;
75854;SDS011;64502;59.976;30.316;2022-12-31T13:55:48;7.47;;;2.30;;
75854;SDS011;64502;59.976;30.316;2022-12-31T13:58:34;7.00;;;3.25;;
75854;SDS011;64502;59.976;30.316;2022-12-31T14:03:58;9.18;;;2.42;;
75854;SDS011;64502;59.976;30.316;2022-12-31T14:09:29;11.50;;;3.50;;
75854;SDS011;64502;59.976;30.316;2022-12-31T14:12:09;9.20;;;2.72;;
75854;SDS011;64502;59.976;30.316;2022-12-31T14:25:52;8.90;;;2.78;;
75854;SDS011;64502;59.976;30.316;2022-12-31T14:28:28;6.78;;;3.10;;
75854;SDS011;64502;59.976;30.316;2022-12-31T14:31:11;9.10;;;3.50;;
75854;SDS011;64502;59.976;30.316;2022-12-31T14:33:50;9.02;;;3.50;;
75854;SDS011;64502;59.976;30.316;2022-12-31T14:39:26;8.70;;;3.47;;
75854;SDS011;64502;59.976;30.316;2022-12-31T14:50:14;8.60;;;3.10;;
75854;SDS011;64502;59.976;30.316;2022-12-31T14:55:31;9.07;;;3.22;;
75854;SDS011;64502;59.976;30.316;2022-12-31T14:57:59;5.65;;;2.60;;
75854;SDS011;64502;59.976;30.316;2022-12-31T15:00:30;9.02;;;2.95;;
75854;SDS011;64502;59.976;30.316;2022-12-31T15:05:28;6.85;;;2.70;;
75854;SDS011;64502;59.976;30.316;2022-12-31T15:08:12;6.30;;;2.70;;
75854;SDS011;64502;59.976;30.316;2022-12-31T15:13:45;9.20;;;2.42;;
75854;SDS011;64502;59.976;30.316;2022-12-31T15:16:22;4.95;;;2.83;;
75854;SDS011;64502;59.976;30.316;2022-12-31T15:21:59;6.07;;;2.40;;
75854;SDS011;64502;59.976;30.316;2022-12-31T15:24:42;5.15;;;2.78;;
75854;SDS011;64502;59.976;30.316;2022-12-31T15:27:23;5.07;;;2.40;;
75854;SDS011;64502;59.976;30.316;2022-12-31T15:30:02;5.65;;;2.40;;
75854;SDS011;64502;59.976;30.316;2022-12-31T15:32:39;3.85;;;2.05;;
75854;SDS011;64502;59.976;30.316;2022-12-31T15:37:45;5.15;;;2.22;;
75854;SDS011;64502;59.976;30.316;2022-12-31T15:40:49;5.10;;;2.03;;
75854;SDS011;64502;59.976;30.316;2022-12-31T15:43:36;5.15;;;2.55;;
75854;SDS011;64502;59.976;30.316;2022-12-31T15:46:27;5.28;;;2.08;;
75854;SDS011;64502;59.976;30.316;2022-12-31T15:49:04;4.60;;;2.13;;
75854;SDS011;64502;59.976;30.316;2022-12-31T15:51:45;6.13;;;2.60;;
75854;SDS011;64502;59.976;30.316;2022-12-31T15:54:24;3.95;;;2.08;;
75854;SDS011;64502;59.976;30.316;2022-12-31T15:56:55;9.18;;;2.17;;
75854;SDS011;64502;59.976;30.316;2022-12-31T15:59:21;3.70;;;1.75;;
75854;SDS011;64502;59.976;30.316;2022-12-31T16:01:50;7.05;;;2.35;;
75854;SDS011;64502;59.976;30.316;2022-12-31T16:04:25;5.82;;;3.28;;
75854;SDS011;64502;59.976;30.316;2022-12-31T16:06:52;4.75;;;1.90;;
75854;SDS011;64502;59.976;30.316;2022-12-31T16:09:24;3.72;;;1.58;;
75854;SDS011;64502;59.976;30.316;2022-12-31T16:11:52;4.85;;;2.30;;
75854;SDS011;64502;59.976;30.316;2022-12-31T16:14:24;4.47;;;2.05;;
75854;SDS011;64502;59.976;30.316;2022-12-31T16:16:56;3.88;;;1.73;;
75854;SDS011;64502;59.976;30.316;2022-12-31T16:19:26;4.82;;;2.00;;
75854;SDS011;64502;59.976;30.316;2022-12-31T16:21:55;4.72;;;2.03;;
75854;SDS011;64502;59.976;30.316;2022-12-31T16:26:55;4.05;;;1.80;;
75854;SDS011;64502;59.976;30.316;2022-12-31T16:29:24;3.53;;;1.58;;
75854;SDS011;64502;59.976;30.316;2022-12-31T16:31:50;4.53;;;1.98;;
75854;SDS011;64502;59.976;30.316;2022-12-31T16:34:19;3.50;;;1.73;;
75854;SDS011;64502;59.976;30.316;2022-12-31T16:36:56;3.60;;;1.90;;
75854;SDS011;64502;59.976;30.316;2022-12-31T16:39:33;4.85;;;1.73;;
75854;SDS011;64502;59.976;30.316;2022-12-31T16:44:38;4.72;;;1.73;;
75854;SDS011;64502;59.976;30.316;2022-12-31T16:47:04;3.42;;;1.77;;
75854;SDS011;64502;59.976;30.316;2022-12-31T16:49:32;4.05;;;2.10;;
75854;SDS011;64502;59.976;30.316;2022-12-31T16:52:00;3.58;;;1.92;;
75854;SDS011;64502;59.976;30.316;2022-12-31T16:54:29;4.55;;;1.77;;
75854;SDS011;64502;59.976;30.316;2022-12-31T16:56:59;4.25;;;1.80;;
75854;SDS011;64502;59.976;30.316;2022-12-31T17:01:55;6.28;;;3.58;;
75854;SDS011;64502;59.976;30.316;2022-12-31T17:04:23;59.83;;;31.65;;
75854;SDS011;64502;59.976;30.316;2022-12-31T17:06:49;31.33;;;17.45;;
75854;SDS011;64502;59.976;30.316;2022-12-31T17:09:18;9.75;;;4.43;;
75854;SDS011;64502;59.976;30.316;2022-12-31T17:14:18;4.57;;;2.55;;
75854;SDS011;64502;59.976;30.316;2022-12-31T17:19:36;6.72;;;2.50;;
75854;SDS011;64502;59.976;30.316;2022-12-31T17:22:03;4.60;;;2.38;;
75854;SDS011;64502;59.976;30.316;2022-12-31T17:24:32;5.03;;;2.83;;
75854;SDS011;64502;59.976;30.316;2022-12-31T17:27:04;5.57;;;2.95;;
75854;SDS011;64502;59.976;30.316;2022-12-31T17:29:32;6.90;;;3.50;;
75854;SDS011;64502;59.976;30.316;2022-12-31T17:34:36;5.63;;;2.63;;
75854;SDS011;64502;59.976;30.316;2022-12-31T17:37:18;6.15;;;2.88;;
75854;SDS011;64502;59.976;30.316;2022-12-31T17:39:49;5.90;;;2.85;;
75854;SDS011;64502;59.976;30.316;2022-12-31T17:42:25;7.20;;;2.88;;
75854;SDS011;64502;59.976;30.316;2022-12-31T17:44:53;5.03;;;2.70;;
75854;SDS011;64502;59.976;30.316;2022-12-31T17:47:23;5.25;;;2.67;;
75854;SDS011;64502;59.976;30.316;2022-12-31T17:49:57;7.20;;;3.15;;
75854;SDS011;64502;59.976;30.316;2022-12-31T17:52:28;8.15;;;2.97;;
75854;SDS011;64502;59.976;30.316;2022-12-31T17:54:54;6.57;;;2.72;;
75854;SDS011;64502;59.976;30.316;2022-12-31T17:57:21;5.30;;;2.58;;
75854;SDS011;64502;59.976;30.316;2022-12-31T17:59:50;6.28;;;3.67;;
75854;SDS011;64502;59.976;30.316;2022-12-31T18:02:16;7.32;;;2.72;;
75854;SDS011;64502;59.976;30.316;2022-12-31T18:04:41;8.73;;;3.65;;
75854;SDS011;64502;59.976;30.316;2022-12-31T18:07:07;7.22;;;3.33;;
75854;SDS011;64502;59.976;30.316;2022-12-31T18:09:32;6.05;;;2.97;;
75854;SDS011;64502;59.976;30.316;2022-12-31T18:11:57;6.75;;;3.10;;
75854;SDS011;64502;59.976;30.316;2022-12-31T18:14:25;6.63;;;3.08;;
75854;SDS011;64502;59.976;30.316;2022-12-31T18:16:50;6.57;;;2.65;;
75854;SDS011;64502;59.976;30.316;2022-12-31T18:19:16;5.85;;;3.05;;
75854;SDS011;64502;59.976;30.316;2022-12-31T18:21:41;6.80;;;3.50;;
75854;SDS011;64502;59.976;30.316;2022-12-31T18:24:10;7.55;;;3.78;;
75854;SDS011;64502;59.976;30.316;2022-12-31T18:29:12;6.45;;;3.38;;
75854;SDS011;64502;59.976;30.316;2022-12-31T18:31:45;6.03;;;2.67;;
75854;SDS011;64502;59.976;30.316;2022-12-31T18:34:13;6.90;;;3.20;;
75854;SDS011;64502;59.976;30.316;2022-12-31T18:36:40;5.03;;;2.53;;
75854;SDS011;64502;59.976;30.316;2022-12-31T18:39:06;9.27;;;3.25;;
75854;SDS011;64502;59.976;30.316;2022-12-31T18:41:37;6.28;;;4.28;;
75854;SDS011;64502;59.976;30.316;2022-12-31T18:44:04;8.45;;;3.47;;
75854;SDS011;64502;59.976;30.316;2022-12-31T18:46:30;7.25;;;2.50;;
75854;SDS011;64502;59.976;30.316;2022-12-31T18:48:55;6.93;;;3.45;;
75854;SDS011;64502;59.976;30.316;2022-12-31T18:51:21;6.28;;;3.25;;
75854;SDS011;64502;59.976;30.316;2022-12-31T18:53:48;6.97;;;3.78;;
75854;SDS011;64502;59.976;30.316;2022-12-31T18:56:15;6.07;;;2.72;;
75854;SDS011;64502;59.976;30.316;2022-12-31T18:58:43;7.32;;;3.17;;
75854;SDS011;64502;59.976;30.316;2022-12-31T19:03:57;6.72;;;3.58;;
75854;SDS011;64502;59.976;30.316;2022-12-31T19:06:24;6.43;;;2.97;;
75854;SDS011;64502;59.976;30.316;2022-12-31T19:08:50;5.35;;;2.55;;
75854;SDS011;64502;59.976;30.316;2022-12-31T19:11:16;7.25;;;3.17;;
75854;SDS011;64502;59.976;30.316;2022-12-31T19:13:42;8.65;;;4.00;;
75854;SDS011;64502;59.976;30.316;2022-12-31T19:16:08;8.00;;;3.60;;
75854;SDS011;64502;59.976;30.316;2022-12-31T19:18:34;7.22;;;3.20;;
75854;SDS011;64502;59.976;30.316;2022-12-31T19:21:00;5.90;;;3.13;;
75854;SDS011;64502;59.976;30.316;2022-12-31T19:23:26;7.43;;;2.88;;
75854;SDS011;64502;59.976;30.316;2022-12-31T19:25:51;7.85;;;3.50;;
75854;SDS011;64502;59.976;30.316;2022-12-31T19:28:18;7.20;;;4.25;;
75854;SDS011;64502;59.976;30.316;2022-12-31T19:30:48;7.57;;;3.38;;
75854;SDS011;64502;59.976;30.316;2022-12-31T19:33:14;5.47;;;2.75;;
75854;SDS011;64502;59.976;30.316;2022-12-31T19:35:40;7.90;;;3.70;;
75854;SDS011;64502;59.976;30.316;2022-12-31T19:40:41;6.15;;;3.17;;
75854;SDS011;64502;59.976;30.316;2022-12-31T19:43:08;5.85;;;3.78;;
75854;SDS011;64502;59.976;30.316;2022-12-31T19:45:37;7.20;;;3.60;;